Strona główna
METAR-TAF:

METAR-TAF

Lotnisko :

Oberpfaffenhofen, Niemcy

Szerokość geograficzna: 48-05N, Długość geograficzna: 011-17E, wysokość: 600 m

Aktualna obserwacja pogody

Raport powstał 12 minut temu, godzina 16:50 UTC
Wiatr 4 kt od zachodnio-południowy zachód
Temperatura 6°C
Wilgotność 65%
Ciśnienie 1018 hPa
Widzialność 10 km lub więcej
Brak chmur poniżej 1500 m i brak chmur cumulonimbus

METAR: EDMO 201650Z 24004KT CAVOK 06/00 Q1018

czas: 18:02 (17:02 UTC)

Prognoza

Raport powstał 3 godziny i 2 minut temu, godzina 14:00 UTC
Prognoza ważna od 20 godzina 15 UTC do 20 godzina 24 UTC
Wiatr 6 kt od południowy zachód
Widzialność 10 km lub więcej
Brak chmur poniżej 1500 m i brak chmur cumulonimbus
Stopniowe zmiany
od 20 godzina 22 UTC do 20 godzina 24 UTC
Wiatr 12 kt od południowy zachód

TAF: EDMO 201400Z 2015/2024 22006KT CAVOK BECMG 2022/2024 23012KT

Obserwacja i prognoza pogody dla ponad 4000 lotnisk (raport METAR i TAF).

Dostępne stacje oznaczono żółtymi i czerwonymi punktami na mapie.

Najedź kursorem aby zobaczyć nazwę stacji.

Kliknij aby zobaczyć obserwacje i prognozy pogody.

Aby zmienić mapę: kliknij na zielony przycisk z czarnym krzyżykiem, aby powiększyć; na zielony przycisk z myślnikiem, aby pomniejszyć; na zielone strzałki, aby przejść do map sąsiednich.


METAR-TAF: